createdAt,value
2023-05-01T00:01:57.297Z,62.35
2023-05-01T00:04:25.449Z,61.94
2023-05-01T00:06:53.714Z,62.01
2023-05-01T00:09:21.783Z,62.02
2023-05-01T00:11:49.813Z,62.08
2023-05-01T00:14:17.968Z,62.24
2023-05-01T00:16:46.514Z,62.14
2023-05-01T00:19:18.384Z,61.75
2023-05-01T00:21:47.904Z,62.19
2023-05-01T00:24:16.538Z,61.86
2023-05-01T00:26:45.027Z,62.02
2023-05-01T00:29:13.220Z,62.53
2023-05-01T00:31:42.679Z,62.00
2023-05-01T00:34:11.372Z,62.28
2023-05-01T00:36:40.882Z,62.47
2023-05-01T00:39:09.019Z,62.38
2023-05-01T00:41:37.298Z,63.08
2023-05-01T00:44:05.771Z,62.72
2023-05-01T00:46:36.347Z,62.72
2023-05-01T00:49:05.334Z,62.67
2023-05-01T00:51:34.468Z,62.27
2023-05-01T00:54:04.344Z,62.97
2023-05-01T00:56:32.853Z,63.35
2023-05-01T00:59:01.342Z,62.99
2023-05-01T01:01:30.379Z,63.21
2023-05-01T01:03:58.600Z,63.03
2023-05-01T01:06:35.198Z,62.53
2023-05-01T01:09:24.224Z,62.95
2023-05-01T01:12:07.535Z,63.44
2023-05-01T01:14:47.545Z,63.27
2023-05-01T01:17:22.334Z,64.18
2023-05-01T01:20:33.479Z,64.02
2023-05-01T01:23:25.252Z,64.14
2023-05-01T01:26:14.965Z,63.54
2023-05-01T01:29:49.274Z,64.01
2023-05-01T01:32:48.680Z,63.93
2023-05-01T01:35:21.817Z,63.24
2023-05-01T01:38:00.602Z,63.40
2023-05-01T01:40:40.714Z,63.39
2023-05-01T01:43:15.987Z,63.69
2023-05-01T01:45:48.412Z,63.69
2023-05-01T01:48:23.103Z,64.14
2023-05-01T01:50:56.969Z,63.69
2023-05-01T01:53:27.527Z,63.52
2023-05-01T01:55:57.490Z,63.31
2023-05-01T01:58:27.250Z,63.60
2023-05-01T02:00:57.802Z,63.75
2023-05-01T02:03:27.439Z,63.77
2023-05-01T02:05:59.428Z,63.65
2023-05-01T02:08:30.329Z,63.48
2023-05-01T02:11:02.272Z,63.72
2023-05-01T02:13:32.542Z,63.65
2023-05-01T02:16:01.757Z,63.92
2023-05-01T02:18:32.551Z,63.54
2023-05-01T02:21:04.635Z,63.67
2023-05-01T02:23:38.428Z,63.67
2023-05-01T02:26:08.276Z,63.65
2023-05-01T02:28:41.429Z,63.94
2023-05-01T02:31:10.429Z,63.60
2023-05-01T02:33:38.643Z,63.60
2023-05-01T02:36:08.704Z,63.69
2023-05-01T02:38:37.150Z,63.65
2023-05-01T02:41:05.469Z,63.65
2023-05-01T02:43:34.908Z,63.09
2023-05-01T02:46:05.853Z,63.10
2023-05-01T02:48:37.686Z,63.52
2023-05-01T02:51:08.758Z,63.63
2023-05-01T02:53:39.622Z,63.47
2023-05-01T02:56:18.198Z,63.46
2023-05-01T02:58:46.517Z,63.70
2023-05-01T03:01:14.722Z,63.63
2023-05-01T03:03:42.923Z,64.04
2023-05-01T03:06:14.214Z,64.13
2023-05-01T03:08:42.268Z,64.65
2023-05-01T03:11:10.720Z,64.56
2023-05-01T03:13:38.785Z,64.37
2023-05-01T03:16:07.800Z,64.17
2023-05-01T03:18:35.926Z,64.61
2023-05-01T03:21:04.107Z,64.70
2023-05-01T03:23:34.259Z,64.64
2023-05-01T03:26:02.551Z,64.39
2023-05-01T03:28:30.767Z,64.80
2023-05-01T03:30:58.927Z,64.55
2023-05-01T03:33:27.857Z,64.34
2023-05-01T03:36:03.600Z,64.62
2023-05-01T03:38:34.462Z,64.27
2023-05-01T03:41:11.558Z,65.18
2023-05-01T03:43:48.386Z,64.51
2023-05-01T03:46:38.949Z,64.85
2023-05-01T03:49:08.977Z,64.71
2023-05-01T03:51:44.193Z,65.64
2023-05-01T03:54:14.120Z,65.80
2023-05-01T03:57:07.270Z,65.23
2023-05-01T03:59:35.455Z,65.30
2023-05-01T04:02:05.091Z,65.55
2023-05-01T04:04:36.149Z,65.45
2023-05-01T04:07:06.092Z,65.35
2023-05-01T04:09:35.589Z,65.87
2023-05-01T04:12:03.674Z,65.85
2023-05-01T04:14:31.974Z,65.70
2023-05-01T04:17:00.365Z,65.36
2023-05-01T04:19:29.801Z,65.73
2023-05-01T04:21:59.961Z,65.43
2023-05-01T04:24:28.061Z,65.33
2023-05-01T04:26:58.569Z,64.90
2023-05-01T04:29:26.723Z,64.81
2023-05-01T04:31:54.928Z,64.89
2023-05-01T04:34:23.218Z,64.93
2023-05-01T04:36:51.910Z,64.64
2023-05-01T04:39:20.032Z,64.78
2023-05-01T04:41:48.179Z,65.56
2023-05-01T04:44:18.162Z,65.97
2023-05-01T04:46:46.681Z,65.66
2023-05-01T04:49:14.969Z,65.77
2023-05-01T04:51:43.146Z,65.54
2023-05-01T04:54:14.527Z,65.44
2023-05-01T04:56:42.618Z,65.30
2023-05-01T04:59:11.955Z,65.36
2023-05-01T05:01:41.387Z,65.61
2023-05-01T05:04:09.766Z,65.05
2023-05-01T05:06:37.952Z,64.50
2023-05-01T05:09:08.762Z,63.48
2023-05-01T05:11:36.908Z,64.32
2023-05-01T05:14:08.844Z,64.48
2023-05-01T05:16:37.225Z,65.59
2023-05-01T05:19:06.679Z,65.28
2023-05-01T05:21:38.423Z,65.52
2023-05-01T05:24:07.003Z,64.67
2023-05-01T05:26:35.066Z,64.71
2023-05-01T05:29:10.929Z,64.80
2023-05-01T05:31:39.139Z,64.62
2023-05-01T05:34:08.539Z,65.43
2023-05-01T05:36:36.856Z,65.20
2023-05-01T05:39:05.031Z,65.81
2023-05-01T05:41:33.871Z,65.48
2023-05-01T05:44:03.792Z,65.87
2023-05-01T05:46:32.612Z,65.09
2023-05-01T05:49:00.849Z,65.20
2023-05-01T05:51:33.093Z,65.64
2023-05-01T05:54:01.986Z,65.67
2023-05-01T05:56:31.681Z,66.37
2023-05-01T05:59:03.441Z,66.03
2023-05-01T06:01:32.342Z,66.46
2023-05-01T06:04:00.969Z,66.89
2023-05-01T06:06:35.000Z,66.44
2023-05-01T06:09:03.762Z,66.36
2023-05-01T06:11:31.849Z,66.35
2023-05-01T06:14:00.626Z,66.45
2023-05-01T06:16:28.932Z,66.46
2023-05-01T06:18:57.166Z,66.27
2023-05-01T06:21:25.753Z,66.23
2023-05-01T06:23:55.229Z,65.92
2023-05-01T06:26:52.542Z,65.94
2023-05-01T06:29:20.919Z,66.27
2023-05-01T06:31:49.140Z,65.83
2023-05-01T06:34:17.463Z,65.57
2023-05-01T06:36:50.032Z,65.11
2023-05-01T06:39:19.476Z,64.82
2023-05-01T06:41:48.125Z,64.69
2023-05-01T06:44:17.270Z,63.29
2023-05-01T06:46:45.397Z,62.77
2023-05-01T06:49:14.329Z,63.01
2023-05-01T06:51:42.603Z,63.29
2023-05-01T06:54:10.677Z,63.98
2023-05-01T06:56:40.206Z,64.70
2023-05-01T06:59:08.989Z,64.21
2023-05-01T07:01:37.487Z,64.79
2023-05-01T07:04:06.030Z,64.75
2023-05-01T07:06:35.051Z,64.90
2023-05-01T07:09:03.384Z,65.24
2023-05-01T07:11:32.091Z,64.81
2023-05-01T07:16:55.653Z,65.46
2023-05-01T07:19:23.848Z,65.66
2023-05-01T07:21:52.670Z,66.46
2023-05-01T07:24:21.382Z,65.84
2023-05-01T07:26:49.440Z,64.86
2023-05-01T07:29:19.176Z,64.45
2023-05-01T07:31:48.201Z,64.26
2023-05-01T07:34:18.147Z,64.54
2023-05-01T07:36:46.823Z,63.94
2023-05-01T07:39:17.580Z,63.95
2023-05-01T07:41:47.479Z,64.69
2023-05-01T07:44:15.864Z,63.86
2023-05-01T07:46:45.348Z,63.85
2023-05-01T07:49:13.476Z,64.06
2023-05-01T07:51:41.551Z,63.75
2023-05-01T07:54:09.662Z,64.08
2023-05-01T07:56:37.853Z,63.16
2023-05-01T07:59:06.020Z,63.27
2023-05-01T08:01:37.908Z,63.40
2023-05-01T08:04:07.848Z,64.04
2023-05-01T08:06:36.756Z,63.95
2023-05-01T08:09:04.957Z,63.76
2023-05-01T08:11:33.554Z,63.67
2023-05-01T08:14:01.968Z,62.80
2023-05-01T08:16:30.150Z,63.39
2023-05-01T08:18:58.256Z,62.80
2023-05-01T08:21:27.718Z,64.44
2023-05-01T08:23:57.002Z,63.60
2023-05-01T08:26:25.065Z,63.15
2023-05-01T08:28:53.187Z,62.67
2023-05-01T08:31:21.683Z,62.98
2023-05-01T08:33:49.807Z,62.76
2023-05-01T08:36:19.414Z,62.27
2023-05-01T08:38:50.085Z,62.50
2023-05-01T08:41:21.481Z,62.67
2023-05-01T08:43:49.949Z,62.89
2023-05-01T08:46:30.206Z,62.01
2023-05-01T08:49:00.966Z,62.60
2023-05-01T08:51:31.163Z,62.19
2023-05-01T08:54:03.223Z,62.26
2023-05-01T08:56:33.522Z,63.47
2023-05-01T08:59:05.252Z,62.81
2023-05-01T09:01:34.771Z,61.64
2023-05-01T09:04:05.012Z,60.97
2023-05-01T09:06:33.365Z,61.20
2023-05-01T09:09:03.076Z,60.22
2023-05-01T09:11:31.843Z,59.97
2023-05-01T09:14:01.842Z,58.82
2023-05-01T09:16:30.964Z,58.46
2023-05-01T09:19:00.052Z,59.67
2023-05-01T09:21:31.679Z,59.49
2023-05-01T09:23:59.781Z,58.97
2023-05-01T09:26:29.243Z,59.13
2023-05-01T09:28:58.385Z,58.19
2023-05-01T09:31:29.116Z,58.15
2023-05-01T09:33:59.493Z,58.25
2023-05-01T09:36:31.051Z,57.75
2023-05-01T09:39:00.182Z,58.45
2023-05-01T09:41:31.662Z,58.28
2023-05-01T09:44:01.534Z,58.03
2023-05-01T09:46:29.876Z,58.03
2023-05-01T09:48:59.913Z,58.06
2023-05-01T09:51:30.366Z,58.66
2023-05-01T09:54:00.454Z,58.13
2023-05-01T09:56:32.988Z,55.33
2023-05-01T09:59:17.182Z,55.97
2023-05-01T10:01:48.199Z,55.18
2023-05-01T10:04:16.561Z,55.26
2023-05-01T10:06:44.932Z,54.46
2023-05-01T10:09:17.607Z,54.36
2023-05-01T10:11:52.189Z,54.37
2023-05-01T10:14:21.301Z,55.92
2023-05-01T10:16:49.839Z,55.84
2023-05-01T10:19:18.719Z,54.82
2023-05-01T10:21:46.866Z,54.89
2023-05-01T10:24:16.714Z,55.84
2023-05-01T10:26:45.786Z,56.43
2023-05-01T10:29:16.409Z,57.15
2023-05-01T10:31:44.542Z,57.24
2023-05-01T10:34:17.580Z,57.82
2023-05-01T10:36:58.311Z,57.95
2023-05-01T10:39:33.341Z,57.78
2023-05-01T10:42:11.231Z,57.95
2023-05-01T10:44:42.365Z,58.33
2023-05-01T10:47:48.826Z,58.55
2023-05-01T10:50:18.622Z,58.43
2023-05-01T10:53:17.715Z,58.05
2023-05-01T10:55:47.420Z,58.46
2023-05-01T10:59:05.952Z,58.40
2023-05-01T11:01:37.931Z,57.74
2023-05-01T11:04:08.276Z,58.57
2023-05-01T11:06:38.728Z,58.33
2023-05-01T11:09:38.020Z,57.76
2023-05-01T11:12:07.484Z,58.25
2023-05-01T11:15:05.763Z,57.97
2023-05-01T11:17:51.007Z,57.84
2023-05-01T11:20:50.346Z,57.53
2023-05-01T11:23:23.535Z,57.65
2023-05-01T11:26:01.907Z,58.05
2023-05-01T11:28:33.142Z,58.59
2023-05-01T11:31:02.138Z,58.76
2023-05-01T11:33:32.361Z,57.71
2023-05-01T11:36:02.544Z,58.60
2023-05-01T11:38:30.862Z,58.97
2023-05-01T11:41:02.814Z,59.56
2023-05-01T11:43:31.648Z,57.79
2023-05-01T11:46:03.996Z,56.71
2023-05-01T11:48:33.948Z,56.77
2023-05-01T11:51:02.187Z,58.28
2023-05-01T11:53:30.796Z,57.77
2023-05-01T11:56:00.071Z,57.11
2023-05-01T11:58:37.865Z,57.75
2023-05-01T12:01:07.503Z,56.19
2023-05-01T12:03:45.647Z,56.90
2023-05-01T12:06:14.989Z,56.32
2023-05-01T12:08:50.399Z,56.24
2023-05-01T12:11:20.607Z,55.70
2023-05-01T12:13:50.439Z,55.87
2023-05-01T12:16:18.670Z,55.46
2023-05-01T12:18:48.209Z,55.68
2023-05-01T12:21:19.825Z,55.51
2023-05-01T12:23:48.091Z,55.39
2023-05-01T12:26:23.558Z,55.67
2023-05-01T12:28:57.816Z,56.64
2023-05-01T12:31:27.555Z,56.62
2023-05-01T12:33:57.513Z,56.79
2023-05-01T12:36:28.258Z,56.83
2023-05-01T12:38:59.081Z,57.11
2023-05-01T12:41:39.562Z,58.05
2023-05-01T12:44:33.119Z,58.83
2023-05-01T12:47:02.799Z,60.74
2023-05-01T12:49:32.501Z,61.41
2023-05-01T12:52:02.096Z,62.26
2023-05-01T12:54:32.411Z,63.16
2023-05-01T12:57:08.372Z,64.46
2023-05-01T12:59:40.381Z,64.88
2023-05-01T13:02:11.420Z,65.54
2023-05-01T13:04:42.157Z,66.14
2023-05-01T13:07:15.143Z,65.10
2023-05-01T13:09:53.481Z,64.96
2023-05-01T13:12:22.881Z,65.83
2023-05-01T13:14:52.363Z,66.29
2023-05-01T13:17:26.390Z,65.47
2023-05-01T13:19:56.123Z,66.08
2023-05-01T13:22:33.435Z,66.24
2023-05-01T13:25:04.219Z,66.13
2023-05-01T13:27:32.529Z,65.66
2023-05-01T13:30:02.483Z,65.10
2023-05-01T13:32:30.812Z,64.48
2023-05-01T13:35:03.096Z,64.23
2023-05-01T13:37:32.502Z,63.84
2023-05-01T13:40:00.810Z,64.40
2023-05-01T13:42:29.517Z,63.15
2023-05-01T13:44:58.821Z,63.17
2023-05-01T13:47:28.499Z,63.35
2023-05-01T13:49:57.302Z,63.43
2023-05-01T13:52:25.562Z,63.68
2023-05-01T13:54:56.793Z,63.47
2023-05-01T13:57:24.962Z,63.30
2023-05-01T13:59:53.133Z,62.72
2023-05-01T14:02:27.225Z,62.69
2023-05-01T14:04:59.310Z,62.10
2023-05-01T14:07:28.927Z,62.38
2023-05-01T14:09:59.517Z,62.12
2023-05-01T14:12:30.567Z,61.80
2023-05-01T14:14:59.504Z,61.97
2023-05-01T14:17:32.536Z,61.74
2023-05-01T14:20:02.775Z,61.17
2023-05-01T14:22:32.769Z,60.79
2023-05-01T14:25:01.697Z,60.05
2023-05-01T14:27:29.956Z,59.73
2023-05-01T14:29:58.167Z,59.42
2023-05-01T14:32:27.253Z,58.74
2023-05-01T14:34:55.695Z,59.48
2023-05-01T14:37:25.195Z,59.09
2023-05-01T14:39:53.321Z,59.08
2023-05-01T14:42:21.366Z,58.92
2023-05-01T14:44:49.697Z,58.84
2023-05-01T14:47:21.869Z,58.82
2023-05-01T14:49:54.481Z,59.17
2023-05-01T14:52:23.922Z,59.60
2023-05-01T14:54:53.182Z,60.10
2023-05-01T14:57:21.266Z,61.16
2023-05-01T14:59:49.260Z,60.87
2023-05-01T15:02:17.408Z,61.15
2023-05-01T15:04:45.729Z,61.69
2023-05-01T15:07:13.798Z,61.67
2023-05-01T15:09:46.303Z,61.26
2023-05-01T15:12:14.734Z,61.22
2023-05-01T15:14:42.778Z,60.89
2023-05-01T15:17:11.312Z,61.13
2023-05-01T15:19:39.393Z,60.89
2023-05-01T15:22:07.464Z,60.48
2023-05-01T15:24:35.519Z,60.87
2023-05-01T15:27:05.076Z,61.46
2023-05-01T15:29:33.459Z,61.58
2023-05-01T15:32:11.884Z,62.15
2023-05-01T15:34:41.275Z,62.94
2023-05-01T15:37:12.046Z,63.79
2023-05-01T15:39:40.630Z,64.56
2023-05-01T15:42:10.009Z,66.07
2023-05-01T15:44:38.375Z,66.27
2023-05-01T15:47:06.488Z,66.88
2023-05-01T15:49:34.592Z,67.04
2023-05-01T15:52:02.859Z,67.65
2023-05-01T15:54:31.022Z,68.22
2023-05-01T15:57:02.003Z,69.36
2023-05-01T15:59:31.594Z,69.50
2023-05-01T16:01:59.628Z,69.72
2023-05-01T16:04:28.883Z,70.70
2023-05-01T16:06:56.916Z,71.31
2023-05-01T16:09:32.224Z,71.65
2023-05-01T16:12:03.254Z,72.36
2023-05-01T16:14:33.009Z,71.79
2023-05-01T16:17:01.424Z,70.76
2023-05-01T16:19:30.564Z,69.51
2023-05-01T16:21:59.880Z,68.88
2023-05-01T16:24:27.970Z,68.68
2023-05-01T16:26:56.143Z,68.69
2023-05-01T16:29:24.398Z,69.07
2023-05-01T16:31:54.125Z,69.42
2023-05-01T16:34:28.576Z,70.06
2023-05-01T16:36:56.805Z,69.47
2023-05-01T16:39:25.242Z,69.16
2023-05-01T16:41:55.328Z,69.58
2023-05-01T16:44:24.209Z,69.94
2023-05-01T16:46:55.725Z,70.21
2023-05-01T16:49:24.932Z,70.24
2023-05-01T16:51:56.555Z,70.68
2023-05-01T16:54:25.093Z,70.51
2023-05-01T16:56:53.341Z,70.65
2023-05-01T16:59:23.400Z,70.73
2023-05-01T17:01:52.979Z,71.38
2023-05-01T17:04:21.139Z,71.52
2023-05-01T17:06:49.578Z,72.04
2023-05-01T17:09:17.739Z,72.81
2023-05-01T17:11:56.832Z,72.90
2023-05-01T17:14:25.257Z,73.22
2023-05-01T17:16:54.786Z,73.28
2023-05-01T17:19:22.948Z,73.88
2023-05-01T17:21:50.986Z,74.05
2023-05-01T17:24:19.424Z,73.84
2023-05-01T17:26:47.685Z,74.20
2023-05-01T17:29:15.701Z,74.20
2023-05-01T17:31:43.839Z,74.08
2023-05-01T17:34:13.281Z,74.15
2023-05-01T17:36:41.425Z,74.17
2023-05-01T17:39:09.458Z,73.98
2023-05-01T17:41:37.482Z,73.81
2023-05-01T17:44:05.917Z,74.10
2023-05-01T17:46:34.726Z,73.64
2023-05-01T17:49:03.057Z,73.33
2023-05-01T17:51:33.093Z,73.26
2023-05-01T17:54:02.368Z,73.41
2023-05-01T17:56:30.433Z,73.29
2023-05-01T17:58:58.668Z,73.22
2023-05-01T18:01:26.919Z,73.19
2023-05-01T18:03:55.257Z,73.09
2023-05-01T18:06:23.671Z,72.56
2023-05-01T18:08:53.142Z,72.84
2023-05-01T18:11:21.257Z,72.55
2023-05-01T18:13:49.357Z,72.91
2023-05-01T18:16:18.573Z,72.62
2023-05-01T18:18:48.153Z,72.31
2023-05-01T18:21:16.911Z,72.19
2023-05-01T18:23:46.526Z,72.31
2023-05-01T18:26:19.181Z,72.38
2023-05-01T18:28:47.381Z,72.13
2023-05-01T18:31:16.137Z,72.33
2023-05-01T18:33:44.442Z,72.41
2023-05-01T18:36:12.501Z,72.24
2023-05-01T18:38:40.591Z,72.81
2023-05-01T18:41:08.624Z,72.21
2023-05-01T18:43:38.098Z,72.61
2023-05-01T18:46:06.361Z,72.55
2023-05-01T18:48:34.498Z,72.52
2023-05-01T18:53:35.212Z,72.70
2023-05-01T18:56:03.486Z,72.64
2023-05-01T18:58:32.017Z,72.54
2023-05-01T19:01:07.702Z,72.49
2023-05-01T19:03:36.095Z,72.61
2023-05-01T19:06:04.626Z,72.32
2023-05-01T19:08:32.718Z,72.18
2023-05-01T19:11:00.771Z,72.48
2023-05-01T19:13:28.912Z,72.12
2023-05-01T19:15:57.190Z,72.31
2023-05-01T19:18:26.981Z,72.66
2023-05-01T19:20:55.117Z,72.83
2023-05-01T19:23:23.200Z,72.98
2023-05-01T19:25:51.422Z,72.80
2023-05-01T19:28:20.186Z,72.79
2023-05-01T19:30:48.426Z,72.74
2023-05-01T19:33:17.336Z,72.55
2023-05-01T19:35:46.866Z,72.43
2023-05-01T19:38:15.465Z,72.66
2023-05-01T19:40:45.007Z,72.45
2023-05-01T19:43:14.069Z,72.72
2023-05-01T19:45:42.218Z,72.36
2023-05-01T19:48:10.820Z,72.92
2023-05-01T19:50:39.215Z,72.60
2023-05-01T19:53:08.693Z,72.29
2023-05-01T19:55:37.176Z,71.83
2023-05-01T19:58:05.606Z,71.68
2023-05-01T20:00:35.160Z,72.05
2023-05-01T20:03:03.440Z,72.00
2023-05-01T20:05:32.571Z,71.59
2023-05-01T20:08:02.236Z,71.40
2023-05-01T20:10:32.510Z,71.48
2023-05-01T20:13:01.735Z,72.06
2023-05-01T20:15:29.793Z,72.06
2023-05-01T20:17:58.422Z,72.23
2023-05-01T20:20:26.532Z,72.07
2023-05-01T20:23:12.613Z,72.19
2023-05-01T20:25:42.623Z,72.28
2023-05-01T20:28:36.156Z,72.68
2023-05-01T20:31:04.616Z,72.90
2023-05-01T20:33:34.782Z,73.02
2023-05-01T20:36:03.408Z,72.77
2023-05-01T20:38:31.711Z,72.77
2023-05-01T20:41:01.112Z,72.47
2023-05-01T20:43:34.068Z,71.95
2023-05-01T20:46:02.183Z,72.26
2023-05-01T20:48:30.409Z,72.38
2023-05-01T20:50:58.532Z,71.70
2023-05-01T20:53:26.679Z,71.98
2023-05-01T20:55:54.770Z,72.34
2023-05-01T20:58:24.274Z,71.81
2023-05-01T21:00:54.909Z,71.75
2023-05-01T21:03:23.093Z,71.85
2023-05-01T21:05:51.210Z,71.50
2023-05-01T21:08:19.678Z,71.84
2023-05-01T21:10:47.742Z,72.22
2023-05-01T21:13:18.706Z,72.09
2023-05-01T21:15:48.460Z,72.52
2023-05-01T21:18:20.411Z,72.66
2023-05-01T21:20:48.993Z,72.63
2023-05-01T21:23:18.760Z,72.58
2023-05-01T21:25:46.764Z,71.84
2023-05-01T21:28:15.858Z,71.93
2023-05-01T21:30:44.016Z,71.75
2023-05-01T21:33:17.268Z,71.94
2023-05-01T21:35:47.352Z,71.95
2023-05-01T21:38:15.807Z,72.31
2023-05-01T21:40:46.058Z,71.96
2023-05-01T21:43:14.578Z,72.17
2023-05-01T21:45:44.972Z,72.34
2023-05-01T21:48:18.029Z,72.31
2023-05-01T21:50:50.477Z,72.31
2023-05-01T21:53:18.552Z,71.88
2023-05-01T21:55:47.194Z,71.67
2023-05-01T21:58:15.335Z,71.91
2023-05-01T22:00:43.575Z,71.95
2023-05-01T22:03:12.303Z,71.72
2023-05-01T22:05:42.122Z,71.71
2023-05-01T22:08:10.454Z,71.41
2023-05-01T22:10:38.476Z,71.70
2023-05-01T22:13:06.589Z,71.67
2023-05-01T22:15:34.827Z,71.68
2023-05-01T22:18:03.207Z,72.24
2023-05-01T22:20:32.274Z,72.43
2023-05-01T22:23:01.829Z,72.01
2023-05-01T22:25:29.862Z,72.07
2023-05-01T22:28:00.444Z,71.97
2023-05-01T22:30:28.953Z,71.81
2023-05-01T22:32:57.092Z,71.50
2023-05-01T22:35:25.248Z,71.20
2023-05-01T22:37:53.244Z,71.67
2023-05-01T22:40:22.882Z,72.04
2023-05-01T22:42:51.119Z,72.70
2023-05-01T22:45:19.124Z,73.08
2023-05-01T22:47:47.202Z,72.00
2023-05-01T22:50:15.876Z,71.54
2023-05-01T22:52:45.830Z,71.03
2023-05-01T22:55:15.919Z,71.45
2023-05-01T22:57:45.619Z,71.85
2023-05-01T23:00:14.859Z,71.71
2023-05-01T23:02:43.424Z,71.04
2023-05-01T23:05:11.534Z,71.54
2023-05-01T23:07:39.786Z,71.81
2023-05-01T23:10:09.266Z,71.63
2023-05-01T23:12:43.344Z,72.18
2023-05-01T23:15:16.872Z,72.22
2023-05-01T23:17:45.320Z,71.94
2023-05-01T23:20:20.809Z,71.92
2023-05-01T23:22:49.338Z,71.68
2023-05-01T23:25:23.782Z,71.77
2023-05-01T23:27:54.884Z,71.95
2023-05-01T23:30:24.682Z,71.94
2023-05-01T23:32:53.144Z,71.64
2023-05-01T23:35:24.287Z,71.72
2023-05-01T23:37:53.662Z,71.61
2023-05-01T23:40:22.003Z,71.39
2023-05-01T23:42:50.650Z,71.44
2023-05-01T23:45:19.205Z,71.62
2023-05-01T23:47:48.699Z,71.71
2023-05-01T23:50:16.903Z,71.37
2023-05-01T23:52:45.440Z,71.35
2023-05-01T23:55:14.278Z,70.98
2023-05-01T23:57:42.341Z,71.00
